National Weather Service Raw Text Product

Displaying AFOS PIL: TAFALO Received: 2018-10-12 00:56 UTC


085 
FTUS43 KDMX 120056 AAA
TAFALO
TAF AMD
KALO 120056Z 1201/1224 30010KT P6SM OVC035
      TEMPO 1201/1203 OVC030
     FM120400 31004KT P6SM BKN120
     FM121200 31004KT P6SM BKN070
     FM121600 29008KT P6SM SCT030 BKN060
     FM122200 26005KT P6SM BKN035=